Time;durP1;ratioP1;P1;durP2;ratioP2;P2;SDS_P1;SDS_P2;PMS_P1;PMS_P2;Temp;Humidity;BMP_temperature;BMP_pressure;BME280_temperature;BME280_humidity;BME280_pressure;Samples;Min_cycle;Max_cycle;Signal;HPM_P1;HPM_P2
2022/09/21 00:00:40;;;;;;;4.75;3.60;;;;;;;11.94;nan;102551.22;5043855;28;20041;-57
2022/09/21 00:03:05;;;;;;;9.75;3.55;;;;;;;11.63;nan;102500.53;5049825;28;20037;-55
2022/09/21 00:05:32;;;;;;;6.32;3.22;;;;;;;11.65;nan;102500.50;5035621;28;20022;-60
2022/09/21 00:08:04;;;;;;;7.80;3.78;;;;;;;11.91;nan;102551.25;5054442;28;20044;-60
2022/09/21 00:10:30;;;;;;;9.20;3.30;;;;;;;11.90;nan;102549.53;5053156;28;20025;-59
2022/09/21 00:12:57;;;;;;;8.30;3.63;;;;;;;11.88;nan;102547.78;5052719;28;20064;-59
2022/09/21 00:15:23;;;;;;;5.25;3.38;;;;;;;11.88;nan;102539.88;5053936;28;20044;-58
2022/09/21 00:17:52;;;;;;;7.78;3.60;;;;;;;11.81;nan;102533.78;5050199;28;20038;-58
2022/09/21 00:20:18;;;;;;;6.30;3.45;;;;;;;11.78;nan;102520.63;5034152;28;20033;-57
2022/09/21 00:22:44;;;;;;;4.35;3.10;;;;;;;11.55;nan;102488.31;5049635;28;20080;-59
2022/09/21 00:25:09;;;;;;;5.90;3.17;;;;;;;11.80;nan;102529.38;5034084;28;20033;-59
2022/09/21 00:27:35;;;;;;;7.47;3.00;;;;;;;11.87;nan;102546.03;5033631;28;20034;-59
2022/09/21 00:30:02;;;;;;;5.35;2.88;;;;;;;11.63;nan;102500.53;5033608;28;20041;-59
2022/09/21 00:32:30;;;;;;;5.55;3.30;;;;;;;11.59;nan;102492.63;5031743;28;20473;-58
2022/09/21 00:34:56;;;;;;;6.93;2.88;;;;;;;11.59;nan;102498.78;5033569;28;20025;-58
2022/09/21 00:37:22;;;;;;;5.20;2.97;;;;;;;11.76;nan;102540.88;5032361;28;20026;-57
2022/09/21 00:39:48;;;;;;;6.00;3.20;;;;;;;11.76;nan;102538.25;5033579;28;20033;-59
2022/09/21 00:42:18;;;;;;;5.40;3.10;;;;;;;11.49;nan;102497.16;5033614;28;20058;-59
2022/09/21 00:44:43;;;;;;;4.95;2.90;;;;;;;11.50;nan;102504.16;5033688;28;20040;-59
2022/09/21 00:47:32;;;;;;;6.25;3.47;;;;;;;11.68;nan;102537.38;5048859;28;20042;-61
2022/09/21 00:49:58;;;;;;;5.38;3.10;;;;;;;11.51;nan;102507.66;5022660;28;20052;-60
2022/09/21 00:52:24;;;;;;;9.50;3.35;;;;;;;11.32;nan;102490.28;5032123;28;20037;-60
2022/09/21 00:55:18;;;;;;;7.30;3.28;;;;;;;11.55;nan;102531.38;5032111;28;20109;-59
2022/09/21 00:57:46;;;;;;;4.50;2.92;;;;;;;11.42;nan;102523.56;5030709;28;20052;-59
2022/09/21 01:00:13;;;;;;;5.43;2.60;;;;;;;11.41;nan;102532.41;5032162;28;20038;-60
2022/09/21 01:02:38;;;;;;;4.13;2.90;;;;;;;11.29;nan;102528.94;5033381;28;20069;-54
2022/09/21 01:05:06;;;;;;;5.22;2.65;;;;;;;11.26;nan;102536.91;5033222;28;20072;-60
2022/09/21 01:07:36;;;;;;;6.13;3.00;;;;;;;10.80;nan;102471.41;5033213;28;20029;-59
2022/09/21 01:10:06;;;;;;;9.90;3.58;;;;;;;10.72;nan;102474.97;5031777;28;20034;-59
2022/09/21 01:12:37;;;;;;;6.07;3.30;;;;;;;10.98;nan;102535.34;5031497;28;20485;-59
2022/09/21 01:15:24;;;;;;;11.57;3.30;;;;;;;10.88;nan;102532.81;5015540;28;20088;-57
2022/09/21 01:18:11;;;;;;;5.10;3.17;;;;;;;10.77;nan;102535.50;5032952;28;20033;-59
2022/09/21 01:21:14;;;;;;;4.85;3.78;;;;;;;10.69;nan;102535.56;5033138;28;20030;-57
2022/09/21 01:23:58;;;;;;;5.22;3.20;;;;;;;10.61;nan;102536.50;5031632;28;20120;-59
2022/09/21 01:26:42;;;;;;;4.82;3.58;;;;;;;10.49;nan;102549.72;5032691;28;20044;-58
2022/09/21 01:29:07;;;;;;;5.30;3.17;;;;;;;10.42;nan;102532.22;5032927;28;20033;-58
2022/09/21 01:31:40;;;;;;;5.70;3.60;;;;;;;10.02;nan;102479.72;5033138;28;20025;-59
2022/09/21 01:34:09;;;;;;;7.28;3.22;;;;;;;10.03;nan;102492.00;5031723;28;20025;-54
2022/09/21 01:36:35;;;;;;;9.55;3.60;;;;;;;10.17;nan;102523.53;5031559;28;20028;-58
2022/09/21 01:39:06;;;;;;;6.47;3.72;;;;;;;10.11;nan;102532.31;5034642;28;20094;-57
2022/09/21 01:41:31;;;;;;;8.75;3.78;;;;;;;9.85;nan;102483.28;5052542;28;20037;-57
2022/09/21 01:44:07;;;;;;;6.00;3.38;;;;;;;9.83;nan;102487.69;5067910;28;20047;-56
2022/09/21 01:46:34;;;;;;;5.82;3.35;;;;;;;10.05;nan;102534.06;5052470;28;20108;-55
2022/09/21 01:49:04;;;;;;;4.57;3.50;;;;;;;10.01;nan;102527.94;5067802;28;20028;-59
2022/09/21 01:51:30;;;;;;;6.93;3.00;;;;;;;10.01;nan;102529.72;5052249;28;20499;-59
2022/09/21 01:53:56;;;;;;;5.25;3.10;;;;;;;10.02;nan;102536.72;5068007;28;20194;-59
2022/09/21 01:56:42;;;;;;;8.38;3.50;;;;;;;9.78;nan;102497.34;5052566;28;20028;-57
2022/09/21 01:59:20;;;;;;;8.20;3.72;;;;;;;9.96;nan;102527.09;5050854;28;20066;-56
2022/09/21 02:02:10;;;;;;;5.32;2.70;;;;;;;10.02;nan;102537.59;5052016;28;20036;-58
2022/09/21 02:04:37;;;;;;;4.00;3.00;;;;;;;9.67;nan;102460.56;5052231;28;20078;-54
2022/09/21 02:07:03;;;;;;;4.70;2.72;;;;;;;9.76;nan;102475.41;5052113;28;20476;-55
2022/09/21 02:09:28;;;;;;;6.88;2.80;;;;;;;9.86;nan;102498.19;5050873;28;20183;-59
2022/09/21 02:11:54;;;;;;;7.65;3.15;;;;;;;10.02;nan;102524.44;5051891;28;20040;-58
2022/09/21 02:14:21;;;;;;;7.15;3.63;;;;;;;10.08;nan;102545.47;5050665;28;20033;-59
2022/09/21 02:17:24;;;;;;;8.35;3.20;;;;;;;10.12;nan;102531.44;5050856;28;20535;-59
2022/09/21 02:20:05;;;;;;;7.07;3.10;;;;;;;10.15;nan;102522.69;5052104;28;20357;-58
2022/09/21 02:23:07;;;;;;;5.35;3.08;;;;;;;10.19;nan;102529.66;5051944;28;20484;-60
2022/09/21 02:25:46;;;;;;;9.90;2.97;;;;;;;10.20;nan;102541.06;5052167;28;20033;-59
2022/09/21 02:28:22;;;;;;;6.15;2.70;;;;;;;9.89;nan;102477.16;5050788;28;20033;-59
2022/09/21 02:30:54;;;;;;;5.60;3.30;;;;;;;10.01;nan;102498.16;5047296;28;20116;-59
2022/09/21 02:33:31;;;;;;;6.43;3.40;;;;;;;10.14;nan;102526.19;5031872;28;20061;-58
2022/09/21 02:36:00;;;;;;;5.80;2.60;;;;;;;10.28;nan;102541.91;5030980;28;20114;-59
2022/09/21 02:38:36;;;;;;;6.20;3.45;;;;;;;9.97;nan;102494.66;5032042;28;20164;-60
2022/09/21 02:41:11;;;;;;;6.00;3.00;;;;;;;9.84;nan;102465.75;5030657;28;20033;-56
2022/09/21 02:44:15;;;;;;;7.75;3.00;;;;;;;10.15;nan;102534.09;5031809;28;20511;-60
2022/09/21 02:46:52;;;;;;;5.85;2.70;;;;;;;10.03;nan;102526.19;5018745;28;20139;-59
2022/09/21 02:49:22;;;;;;;5.22;2.67;;;;;;;9.71;nan;102491.22;5030668;28;20037;-58
2022/09/21 02:51:50;;;;;;;6.57;2.70;;;;;;;9.67;nan;102493.84;5034278;28;20067;-59
2022/09/21 02:54:18;;;;;;;5.78;2.95;;;;;;;9.77;nan;102524.50;5038462;28;20396;-57
2022/09/21 02:56:45;;;;;;;5.30;2.83;;;;;;;9.46;nan;102481.63;5055831;28;20053;-57
2022/09/21 02:59:11;;;;;;;5.63;3.10;;;;;;;9.39;nan;102474.66;5055896;28;20112;-54
2022/09/21 03:01:38;;;;;;;4.70;2.80;;;;;;;9.35;nan;102486.91;5055574;28;20539;-60
2022/09/21 03:04:04;;;;;;;5.88;2.95;;;;;;;9.59;nan;102536.81;5054204;28;20051;-59
2022/09/21 03:06:30;;;;;;;3.75;2.47;;;;;;;9.37;nan;102516.69;5055725;28;20025;-57
2022/09/21 03:08:56;;;;;;;5.35;3.40;;;;;;;9.13;nan;102472.06;5055666;28;20033;-58
2022/09/21 03:11:22;;;;;;;5.38;3.33;;;;;;;9.12;nan;102480.78;5055465;28;20041;-57
2022/09/21 03:13:47;;;;;;;9.77;3.13;;;;;;;9.18;nan;102498.31;5055109;28;20041;-58
2022/09/21 03:16:12;;;;;;;5.93;3.10;;;;;;;9.42;nan;102548.22;5055564;28;20029;-57
2022/09/21 03:18:39;;;;;;;7.53;3.58;;;;;;;9.31;nan;102531.59;5053450;28;20033;-57
2022/09/21 03:21:05;;;;;;;7.07;2.90;;;;;;;9.07;nan;102498.31;5034034;28;20041;-57
2022/09/21 03:23:30;;;;;;;7.65;2.97;;;;;;;9.30;nan;102543.84;5035176;28;20026;-58
2022/09/21 03:25:55;;;;;;;7.38;2.88;;;;;;;8.75;nan;102444.91;5035620;28;20030;-58
2022/09/21 03:28:21;;;;;;;5.60;2.63;;;;;;;9.28;nan;102544.75;5035164;28;20033;-59
2022/09/21 03:30:50;;;;;;;6.45;3.50;;;;;;;9.15;nan;102529.84;5035362;28;20082;-57
2022/09/21 03:33:16;;;;;;;7.10;3.10;;;;;;;9.14;nan;102539.47;5034934;28;20029;-57
2022/09/21 03:35:42;;;;;;;7.55;3.17;;;;;;;9.19;nan;102556.13;5035483;28;20175;-59
2022/09/21 03:38:08;;;;;;;5.63;3.10;;;;;;;8.69;nan;102465.91;5035126;28;20091;-57
2022/09/21 03:40:33;;;;;;;7.25;3.17;;;;;;;8.80;nan;102493.03;5038768;28;20037;-59
2022/09/21 03:42:59;;;;;;;9.52;2.88;;;;;;;9.10;nan;102556.13;5040976;28;20130;-57
2022/09/21 03:45:26;;;;;;;4.88;3.30;;;;;;;8.75;nan;102500.94;5053458;28;20040;-57
2022/09/21 03:47:56;;;;;;;8.23;3.60;;;;;;;8.96;nan;102549.97;5045412;28;20393;-58
2022/09/21 03:50:23;;;;;;;4.50;3.30;;;;;;;8.94;nan;102551.69;5033405;28;20036;-57
2022/09/21 03:52:48;;;;;;;8.90;3.25;;;;;;;8.87;nan;102555.22;5034600;28;20066;-56
2022/09/21 03:55:14;;;;;;;7.25;3.50;;;;;;;8.86;nan;102554.31;5034580;28;20041;-58
2022/09/21 03:57:39;;;;;;;5.32;4.30;;;;;;;8.44;nan;102488.59;5034798;28;20116;-60
2022/09/21 04:00:07;;;;;;;9.30;3.90;;;;;;;8.58;nan;102531.47;5043748;28;20045;-56
2022/09/21 04:02:34;;;;;;;6.32;4.13;;;;;;;8.67;nan;102528.03;5053514;28;20465;-56
2022/09/21 04:04:59;;;;;;;7.15;3.45;;;;;;;8.72;nan;102534.16;5054335;28;20470;-57
2022/09/21 04:07:25;;;;;;;9.43;4.13;;;;;;;8.53;nan;102513.97;5054562;28;20064;-59
2022/09/21 04:09:50;;;;;;;6.40;3.65;;;;;;;8.63;nan;102536.75;5054437;28;20037;-57
2022/09/21 04:12:16;;;;;;;8.65;4.05;;;;;;;8.78;nan;102550.81;5054252;28;20511;-58
2022/09/21 04:14:41;;;;;;;6.43;4.05;;;;;;;8.43;nan;102476.34;5054247;28;20036;-58
2022/09/21 04:17:06;;;;;;;7.30;4.30;;;;;;;8.52;nan;102491.25;5054133;28;20064;-59
2022/09/21 04:19:32;;;;;;;8.68;3.65;;;;;;;8.96;nan;102548.19;5053920;28;20543;-56
2022/09/21 04:21:57;;;;;;;5.60;3.63;;;;;;;9.01;nan;102550.84;5054278;28;20100;-57
2022/09/21 04:24:22;;;;;;;5.28;4.18;;;;;;;8.67;nan;102478.16;5054020;28;20033;-58
2022/09/21 04:26:48;;;;;;;5.93;3.65;;;;;;;8.75;nan;102477.28;5054310;28;20116;-58
2022/09/21 04:29:14;;;;;;;8.95;4.43;;;;;;;9.14;nan;102534.19;5053725;28;20033;-58
2022/09/21 04:31:39;;;;;;;8.30;4.00;;;;;;;8.83;nan;102483.41;5052512;28;20158;-58
2022/09/21 04:34:05;;;;;;;7.13;3.90;;;;;;;9.22;nan;102543.00;5053718;28;20498;-57
2022/09/21 04:36:31;;;;;;;8.07;3.80;;;;;;;9.26;nan;102557.84;5045041;28;20025;-60
2022/09/21 04:38:57;;;;;;;6.32;3.55;;;;;;;9.28;nan;102550.00;5034081;28;20377;-56
2022/09/21 04:41:22;;;;;;;6.70;4.45;;;;;;;9.28;nan;102550.84;5032639;28;20041;-55
2022/09/21 04:43:48;;;;;;;5.10;3.90;;;;;;;9.28;nan;102550.84;5033541;28;20052;-58
2022/09/21 04:46:15;;;;;;;5.65;3.63;;;;;;;9.30;nan;102561.38;5033623;28;20038;-56
2022/09/21 04:48:41;;;;;;;6.95;4.60;;;;;;;8.98;nan;102493.06;5033362;28;20021;-57
2022/09/21 04:51:07;;;;;;;6.22;3.70;;;;;;;9.22;nan;102536.84;5033612;28;20107;-55
2022/09/21 04:53:33;;;;;;;5.55;4.78;;;;;;;8.99;nan;102489.53;5033672;28;20038;-56
2022/09/21 04:55:58;;;;;;;11.13;4.00;;;;;;;9.37;nan;102550.00;5032396;28;20041;-58
2022/09/21 04:58:24;;;;;;;5.53;4.88;;;;;;;9.01;nan;102482.56;5033426;28;20399;-58
2022/09/21 05:00:51;;;;;;;6.95;4.00;;;;;;;9.39;nan;102548.22;5033227;28;20042;-58
2022/09/21 05:03:17;;;;;;;6.63;4.20;;;;;;;9.38;nan;102551.72;5033107;28;20037;-56
2022/09/21 05:05:49;;;;;;;8.27;4.25;;;;;;;9.00;nan;102483.41;5033516;28;20060;-60
2022/09/21 05:08:15;;;;;;;4.70;3.47;;;;;;;9.22;nan;102543.00;5033221;28;20037;-59
2022/09/21 05:10:41;;;;;;;5.47;3.30;;;;;;;9.33;nan;102559.63;5032146;28;20036;-58
2022/09/21 05:13:06;;;;;;;5.75;4.18;;;;;;;9.31;nan;102556.09;5031847;28;20057;-58
2022/09/21 05:15:32;;;;;;;4.20;3.80;;;;;;;9.30;nan;102574.50;5032963;28;20525;-58
2022/09/21 05:17:57;;;;;;;7.78;4.25;;;;;;;8.93;nan;102489.56;5032937;28;20080;-58
2022/09/21 05:20:23;;;;;;;8.52;3.97;;;;;;;9.25;nan;102550.84;5032742;28;20038;-58
2022/09/21 05:22:48;;;;;;;5.65;4.10;;;;;;;8.85;nan;102492.16;5033155;28;20041;-59
2022/09/21 05:25:13;;;;;;;7.15;4.57;;;;;;;8.81;nan;102487.81;5031614;28;20124;-55
2022/09/21 05:27:38;;;;;;;8.90;4.22;;;;;;;8.77;nan;102486.03;5032876;28;20033;-55
2022/09/21 05:30:05;;;;;;;8.27;4.10;;;;;;;9.14;nan;102556.97;5032129;28;20037;-59
2022/09/21 05:32:58;;;;;;;6.57;4.68;;;;;;;9.13;nan;102565.75;5032572;28;20033;-57
2022/09/21 05:35:52;;;;;;;7.82;4.45;;;;;;;8.76;nan;102512.28;5031553;28;20061;-58
2022/09/21 05:38:18;;;;;;;7.65;4.55;;;;;;;9.06;nan;102559.59;5031521;28;20032;-59
2022/09/21 05:40:46;;;;;;;8.40;5.13;;;;;;;9.07;nan;102564.00;5031263;28;20033;-57
2022/09/21 05:43:12;;;;;;;7.60;4.55;;;;;;;9.05;nan;102563.97;5032672;28;20502;-59
2022/09/21 05:45:41;;;;;;;6.45;4.57;;;;;;;8.78;nan;102518.44;5031566;28;20049;-58
2022/09/21 05:48:22;;;;;;;8.25;4.82;;;;;;;9.12;nan;102567.50;5031430;28;20017;-58
2022/09/21 05:50:56;;;;;;;8.02;4.35;;;;;;;9.16;nan;102568.38;5032654;28;20033;-56
2022/09/21 05:53:30;;;;;;;7.55;4.32;;;;;;;9.23;nan;102573.63;5032303;28;20057;-57
2022/09/21 05:55:58;;;;;;;10.93;4.75;;;;;;;8.96;nan;102502.69;5032541;28;20058;-57
2022/09/21 05:58:41;;;;;;;10.40;5.18;;;;;;;9.38;nan;102563.13;5031161;28;20609;-58
2022/09/21 06:01:25;;;;;;;10.18;7.07;;;;;;;9.46;nan;102584.13;5030798;28;20163;-57
2022/09/21 06:03:51;;;;;;;7.93;5.93;;;;;;;9.12;nan;102504.44;5031841;28;20034;-56
2022/09/21 06:06:17;;;;;;;9.63;5.38;;;;;;;9.58;nan;102576.25;5031809;28;20457;-58
2022/09/21 06:08:42;;;;;;;7.47;4.97;;;;;;;9.24;nan;102512.31;5030750;28;20120;-57
2022/09/21 06:11:08;;;;;;;7.50;5.28;;;;;;;9.34;nan;102519.31;5040655;28;20401;-57
2022/09/21 06:13:33;;;;;;;6.32;4.63;;;;;;;9.36;nan;102512.31;5050156;28;20132;-56
2022/09/21 06:16:02;;;;;;;7.65;5.57;;;;;;;9.84;nan;102586.72;5052178;28;20037;-57
2022/09/21 06:18:28;;;;;;;7.38;5.78;;;;;;;9.91;nan;102580.59;5050667;28;20041;-58
2022/09/21 06:20:53;;;;;;;11.52;6.05;;;;;;;9.97;nan;102573.56;5051996;28;20033;-58
2022/09/21 06:23:19;;;;;;;10.23;5.40;;;;;;;10.06;nan;102588.44;5050830;28;20048;-58
2022/09/21 06:25:50;;;;;;;9.60;5.78;;;;;;;10.06;nan;102570.03;5054184;28;20032;-56
2022/09/21 06:28:15;;;;;;;7.72;5.22;;;;;;;9.79;nan;102505.22;5059134;28;20107;-57
2022/09/21 06:30:41;;;;;;;11.35;5.60;;;;;;;9.97;nan;102520.06;5058455;28;20084;-60
2022/09/21 06:33:07;;;;;;;11.50;5.80;;;;;;;9.90;nan;102516.56;5058495;28;20469;-58
2022/09/21 06:35:34;;;;;;;9.10;5.13;;;;;;;10.27;nan;102571.75;5058015;28;20025;-58
2022/09/21 06:38:00;;;;;;;8.95;5.80;;;;;;;10.29;nan;102581.41;5037004;28;20115;-59
2022/09/21 06:40:26;;;;;;;9.57;5.45;;;;;;;9.94;nan;102506.94;5037262;28;20033;-59
2022/09/21 06:42:57;;;;;;;11.90;5.60;;;;;;;10.03;nan;102522.69;5037111;28;20042;-58
2022/09/21 06:45:22;;;;;;;13.73;5.75;;;;;;;10.34;nan;102576.97;5037412;28;20033;-58
2022/09/21 06:47:48;;;;;;;10.50;5.72;;;;;;;9.78;nan;102477.16;5038643;28;20087;-57
2022/09/21 06:50:13;;;;;;;11.52;5.90;;;;;;;10.38;nan;102577.84;5038398;28;20040;-57
2022/09/21 06:52:39;;;;;;;10.85;5.50;;;;;;;10.32;nan;102565.59;5038687;28;20040;-59
2022/09/21 06:55:05;;;;;;;10.05;5.55;;;;;;;10.27;nan;102550.69;5020858;28;20033;-57
2022/09/21 06:57:30;;;;;;;11.27;5.57;;;;;;;10.50;nan;102581.31;5038349;28;20466;-57
2022/09/21 06:59:56;;;;;;;9.40;5.90;;;;;;;10.50;nan;102570.78;5038076;28;20091;-58
2022/09/21 07:02:21;;;;;;;11.68;5.65;;;;;;;10.73;nan;102571.53;5020167;28;20037;-59
2022/09/21 07:04:46;;;;;;;10.13;5.65;;;;;;;10.86;nan;102579.38;5037096;28;20030;-57
2022/09/21 07:07:12;;;;;;;9.10;5.80;;;;;;;10.87;nan;102541.59;5036784;28;20026;-58
2022/09/21 07:09:37;;;;;;;15.02;7.03;;;;;;;11.31;nan;102573.78;5035924;28;20178;-58
2022/09/21 07:12:03;;;;;;;11.38;6.53;;;;;;;11.11;nan;102521.22;5036086;28;20401;-56
2022/09/21 07:14:28;;;;;;;8.80;6.57;;;;;;;11.61;nan;102578.81;5037298;28;20041;-59
2022/09/21 07:16:53;;;;;;;10.20;6.72;;;;;;;11.68;nan;102584.88;5038295;28;20040;-59
2022/09/21 07:19:19;;;;;;;9.55;5.65;;;;;;;11.76;nan;102578.66;5036569;28;20041;-58
2022/09/21 07:21:46;;;;;;;9.98;5.32;;;;;;;11.90;nan;102569.75;5037871;28;20133;-57
2022/09/21 07:24:11;;;;;;;10.20;5.88;;;;;;;11.66;nan;102505.75;5037824;28;20068;-58
2022/09/21 07:26:37;;;;;;;8.70;4.50;;;;;;;12.29;nan;102570.16;5044836;28;20473;-60
2022/09/21 07:29:03;;;;;;;7.15;4.53;;;;;;;12.54;nan;102586.59;5056381;28;20435;-57
2022/09/21 07:31:28;;;;;;;6.13;3.85;;;;;;;12.46;nan;102518.91;5049277;28;20087;-58
2022/09/21 07:33:59;;;;;;;5.07;4.00;;;;;;;12.71;nan;102531.75;5037451;28;20041;-58
2022/09/21 07:36:24;;;;;;;8.25;4.13;;;;;;;12.87;nan;102538.56;5036157;28;20041;-57
2022/09/21 07:38:50;;;;;;;9.48;4.15;;;;;;;13.35;nan;102595.13;5032344;28;20043;-58
2022/09/21 07:41:15;;;;;;;9.35;3.63;;;;;;;13.51;nan;102601.06;5034418;28;20469;-59
2022/09/21 07:43:41;;;;;;;7.32;3.35;;;;;;;13.62;nan;102583.22;5058657;28;20487;-59
2022/09/21 07:46:11;;;;;;;8.82;4.00;;;;;;;13.77;nan;102575.03;5053653;28;20037;-60
2022/09/21 07:48:36;;;;;;;7.70;3.13;;;;;;;14.04;nan;102577.13;5054469;28;20528;-59
2022/09/21 07:51:04;;;;;;;8.43;4.55;;;;;;;14.57;nan;102620.25;5053183;28;20271;-58
2022/09/21 07:53:31;;;;;;;6.13;2.50;;;;;;;14.71;nan;102591.66;5052877;28;20434;-58
2022/09/21 07:56:05;;;;;;;4.88;3.25;;;;;;;15.39;nan;102645.81;5052949;28;20037;-60
2022/09/21 08:01:14;;;;;;;8.40;2.78;;;;;;;16.12;nan;102652.84;5053912;28;20043;-58
2022/09/21 08:03:40;;;;;;;5.22;2.00;;;;;;;16.69;nan;102660.16;5053938;28;20116;-59
2022/09/21 08:06:06;;;;;;;5.43;2.15;;;;;;;16.59;nan;102613.44;5053823;28;20086;-60
2022/09/21 08:08:31;;;;;;;6.45;2.35;;;;;;;16.92;nan;102627.53;5050678;28;20044;-58
2022/09/21 08:11:07;;;;;;;5.20;2.58;;;;;;;17.42;nan;102667.59;5051046;28;20044;-59
2022/09/21 08:13:32;;;;;;;4.13;1.67;;;;;;;17.65;nan;102677.56;5052370;28;20064;-58
2022/09/21 08:16:01;;;;;;;4.53;1.70;;;;;;;17.50;nan;102677.16;5031845;28;20037;-59
2022/09/21 08:18:27;;;;;;;4.93;1.75;;;;;;;17.22;nan;102678.00;5032736;28;20048;-59
2022/09/21 08:20:54;;;;;;;6.85;2.13;;;;;;;16.75;nan;102636.03;5045813;28;20033;-59
2022/09/21 08:23:19;;;;;;;4.65;2.08;;;;;;;16.41;nan;102637.88;5050698;28;20400;-60
2022/09/21 08:25:45;;;;;;;5.95;1.80;;;;;;;16.35;nan;102670.81;5052168;28;20040;-59
2022/09/21 08:28:10;;;;;;;6.47;2.20;;;;;;;15.99;nan;102640.81;5052295;28;20033;-59
2022/09/21 08:30:36;;;;;;;6.65;1.58;;;;;;;16.02;nan;102654.00;5052036;28;20040;-59
2022/09/21 08:33:02;;;;;;;4.75;1.70;;;;;;;16.49;nan;102681.91;5051692;28;20044;-59
2022/09/21 08:35:27;;;;;;;3.42;1.30;;;;;;;16.95;nan;102689.50;5049627;28;20041;-60
2022/09/21 08:37:53;;;;;;;3.75;1.17;;;;;;;16.73;nan;102646.69;5048399;28;20033;-60
2022/09/21 08:40:19;;;;;;;5.50;1.63;;;;;;;16.70;nan;102625.50;5049387;28;20040;-60
2022/09/21 08:42:56;;;;;;;5.57;1.38;;;;;;;16.91;nan;102701.16;5033844;28;20025;-58
2022/09/21 08:45:24;;;;;;;5.43;1.27;;;;;;;16.78;nan;102674.03;5051334;28;20090;-60
2022/09/21 08:47:52;;;;;;;3.60;1.25;;;;;;;16.65;nan;102653.16;5054556;28;20041;-60
2022/09/21 08:50:20;;;;;;;5.97;1.23;;;;;;;17.42;nan;102696.03;5045788;28;20072;-60
2022/09/21 08:52:47;;;;;;;4.78;1.02;;;;;;;18.35;nan;102694.69;5034787;28;20134;-60
2022/09/21 08:55:17;;;;;;;3.80;0.90;;;;;;;19.49;nan;102703.75;5043443;28;20479;-59
2022/09/21 08:57:42;;;;;;;3.33;1.40;;;;;;;20.31;nan;102685.16;5041122;28;20028;-58
2022/09/21 09:00:16;;;;;;;6.97;1.35;;;;;;;21.03;nan;102707.72;5035847;28;20171;-59
2022/09/21 09:03:17;;;;;;;6.68;1.50;;;;;;;21.58;nan;102727.44;5047218;28;20068;-58
2022/09/21 09:06:37;;;;;;;3.72;0.93;;;;;;;22.35;nan;102733.41;5040838;28;20032;-59
2022/09/21 09:09:14;;;;;;;4.60;1.00;;;;;;;22.97;nan;102733.63;5000927;28;20033;-59
2022/09/21 09:11:42;;;;;;;9.05;1.50;;;;;;;23.22;nan;102734.97;5050165;28;20127;-60
2022/09/21 09:14:23;;;;;;;3.20;1.02;;;;;;;23.42;nan;102740.13;5035556;28;20064;-61
2022/09/21 09:17:03;;;;;;;2.05;1.00;;;;;;;23.44;nan;102730.16;5034582;28;20032;-60
2022/09/21 09:19:44;;;;;;;5.57;1.08;;;;;;;23.91;nan;102738.19;5047305;28;20099;-59
2022/09/21 09:22:17;;;;;;;3.33;1.20;;;;;;;24.23;nan;102722.88;5045785;28;20464;-58
2022/09/21 09:24:50;;;;;;;3.65;1.33;;;;;;;24.29;nan;102738.66;5049096;28;20025;-59
2022/09/21 09:27:31;;;;;;;3.40;1.00;;;;;;;23.39;nan;102698.19;5042874;28;20520;-60
2022/09/21 09:30:02;;;;;;;3.45;1.08;;;;;;;23.49;nan;102728.09;5042182;28;20637;-60
2022/09/21 09:32:39;;;;;;;3.97;1.20;;;;;;;23.62;nan;102739.00;5033589;28;20511;-59
2022/09/21 09:35:25;;;;;;;2.72;0.90;;;;;;;23.46;nan;102730.97;5059566;28;20107;-59
2022/09/21 09:37:54;;;;;;;4.75;0.68;;;;;;;23.28;nan;102711.34;5042838;28;20025;-59
2022/09/21 09:40:32;;;;;;;4.15;1.20;;;;;;;23.60;nan;102720.28;5034171;28;20049;-60
2022/09/21 09:43:10;;;;;;;3.47;1.20;;;;;;;24.09;nan;102742.50;5029538;28;20041;-59
2022/09/21 09:45:48;;;;;;;2.85;1.13;;;;;;;24.26;nan;102734.31;5013118;28;20029;-60
2022/09/21 09:48:28;;;;;;;2.35;1.20;;;;;;;24.41;nan;102741.47;5030696;28;20041;-60
2022/09/21 09:50:54;;;;;;;3.85;1.25;;;;;;;23.83;nan;102671.41;5030552;28;20118;-59
2022/09/21 09:53:22;;;;;;;7.43;1.58;;;;;;;22.78;nan;102687.25;5030829;28;20460;-60
2022/09/21 09:55:49;;;;;;;5.03;1.50;;;;;;;22.11;nan;102675.66;5029305;28;20044;-60
2022/09/21 09:58:25;;;;;;;3.90;1.08;;;;;;;21.72;nan;102737.47;5030592;28;20439;-60
2022/09/21 10:00:52;;;;;;;5.00;1.20;;;;;;;22.19;nan;102737.81;5028700;28;20631;-59
2022/09/21 10:03:22;;;;;;;2.67;1.02;;;;;;;22.68;nan;102733.50;5030353;28;20034;-60
2022/09/21 10:05:48;;;;;;;2.13;0.90;;;;;;;23.39;nan;102733.13;5028305;28;20132;-60
2022/09/21 10:08:43;;;;;;;5.28;0.93;;;;;;;22.46;nan;102688.09;5030206;28;20125;-60
2022/09/21 10:11:10;;;;;;;5.00;1.35;;;;;;;22.26;nan;102682.91;5029613;28;20029;-60
2022/09/21 10:13:38;;;;;;;2.28;0.90;;;;;;;21.70;nan;102657.16;5028413;28;20061;-60
2022/09/21 10:16:05;;;;;;;2.92;0.98;;;;;;;21.81;nan;102726.28;5028840;28;20044;-60
2022/09/21 10:18:47;;;;;;;2.70;0.95;;;;;;;21.45;nan;102728.97;5028348;28;20040;-60
2022/09/21 10:21:24;;;;;;;2.40;0.82;;;;;;;20.86;nan;102669.28;5029785;28;20087;-59
2022/09/21 10:23:52;;;;;;;2.40;0.90;;;;;;;20.58;nan;102729.41;5029665;28;20033;-59
2022/09/21 10:26:18;;;;;;;5.57;0.90;;;;;;;20.15;nan;102700.97;5011866;28;20077;-60
2022/09/21 10:29:00;;;;;;;1.45;0.70;;;;;;;19.56;nan;102654.50;5029806;28;20041;-60
2022/09/21 10:31:28;;;;;;;3.22;0.80;;;;;;;19.82;nan;102669.47;5029629;28;20030;-59
2022/09/21 10:34:03;;;;;;;2.33;1.02;;;;;;;21.16;nan;102721.44;5029858;28;20069;-58
2022/09/21 10:36:36;;;;;;;1.38;0.77;;;;;;;21.33;nan;102672.44;5045868;28;20084;-60
2022/09/21 10:39:17;;;;;;;3.97;1.00;;;;;;;20.79;nan;102671.38;5048195;28;20460;-60
2022/09/21 10:41:47;;;;;;;1.75;0.70;;;;;;;20.28;nan;102721.88;5049266;28;20049;-60
2022/09/21 10:44:18;;;;;;;3.22;0.77;;;;;;;20.39;nan;102708.88;5045290;28;20033;-61
2022/09/21 10:46:45;;;;;;;2.58;0.80;;;;;;;20.40;nan;102670.50;5050975;28;20025;-60
2022/09/21 10:49:16;;;;;;;3.83;0.90;;;;;;;21.04;nan;102666.63;5048040;28;20033;-61
2022/09/21 10:51:44;;;;;;;2.80;0.80;;;;;;;21.42;nan;102655.91;5048194;28;20055;-61
2022/09/21 10:54:10;;;;;;;2.83;1.00;;;;;;;21.60;nan;102655.00;5048467;28;20411;-61
2022/09/21 10:56:35;;;;;;;2.35;0.70;;;;;;;23.07;nan;102707.16;5048297;28;20036;-60
2022/09/21 10:59:21;;;;;;;2.70;0.82;;;;;;;24.04;nan;102707.81;5049322;28;20037;-60
2022/09/21 11:01:49;;;;;;;2.35;0.75;;;;;;;23.99;nan;102661.47;5048144;28;20037;-60
2022/09/21 11:04:21;;;;;;;2.17;0.90;;;;;;;23.52;nan;102658.88;5047981;28;20088;-61
2022/09/21 11:06:50;;;;;;;1.20;0.68;;;;;;;24.32;nan;102680.13;5049214;28;20439;-61
2022/09/21 11:09:18;;;;;;;1.00;0.50;;;;;;;24.65;nan;102714.88;5049028;28;20033;-61
2022/09/21 11:11:56;;;;;;;1.05;0.68;;;;;;;24.18;nan;102712.38;5048890;28;20476;-59
2022/09/21 11:14:44;;;;;;;3.95;0.73;;;;;;;23.34;nan;102653.69;5052589;28;20044;-62
2022/09/21 11:17:26;;;;;;;2.70;0.73;;;;;;;23.38;nan;102696.44;5053153;28;20083;-61
2022/09/21 11:20:15;;;;;;;2.45;0.60;;;;;;;23.91;nan;102703.22;5051354;28;20035;-61
2022/09/21 11:22:52;;;;;;;2.67;0.90;;;;;;;25.15;nan;102709.03;5051519;28;20025;-60
2022/09/21 11:25:21;;;;;;;2.45;0.80;;;;;;;26.32;nan;102712.03;5053222;28;20497;-61
2022/09/21 11:27:52;;;;;;;2.38;0.70;;;;;;;27.15;nan;102628.53;5052869;28;20032;-61
2022/09/21 11:30:18;;;;;;;3.40;0.80;;;;;;;28.25;nan;102699.56;5051459;28;20130;-62
2022/09/21 11:32:47;;;;;;;3.05;0.80;;;;;;;28.42;nan;102699.09;5068235;28;20036;-60
2022/09/21 11:35:27;;;;;;;2.50;1.02;;;;;;;27.61;nan;102693.59;5052938;28;20495;-60
2022/09/21 11:38:05;;;;;;;2.83;0.77;;;;;;;28.28;nan;102693.91;5052793;28;20476;-60
2022/09/21 11:40:30;;;;;;;2.53;1.00;;;;;;;28.83;nan;102696.72;5051197;28;20037;-60
2022/09/21 11:43:11;;;;;;;1.52;0.80;;;;;;;27.32;nan;102697.59;5052895;28;20530;-60
2022/09/21 11:45:59;;;;;;;1.85;0.60;;;;;;;25.59;nan;102698.09;5052625;28;20032;-61
2022/09/21 11:48:58;;;;;;;2.38;0.75;;;;;;;23.52;nan;102632.00;5052418;28;20459;-60
2022/09/21 11:51:37;;;;;;;3.45;0.70;;;;;;;23.70;nan;102683.84;5052358;28;20496;-60
2022/09/21 11:54:37;;;;;;;3.80;0.90;;;;;;;24.88;nan;102684.72;5051960;28;20033;-59
2022/09/21 11:57:19;;;;;;;1.38;0.63;;;;;;;26.00;nan;102679.13;5052451;28;20041;-60
2022/09/21 12:00:03;;;;;;;3.40;0.85;;;;;;;26.35;nan;102677.59;5051108;28;20029;-59
2022/09/21 12:02:39;;;;;;;1.50;0.68;;;;;;;26.20;nan;102674.13;5052360;28;20040;-62